Date,TemperatureHighF,TemperatureAvgF,TemperatureLowF,DewpointHighF,DewpointAvgF,DewpointLowF,HumidityHigh,HumidityAvg,HumidityLow,PressureMaxIn,PressureMinIn,WindSpeedMaxMPH,WindSpeedAvgMPH,GustSpeedMaxMPH,PrecipitationSumIn
2013-3-1,57.3,53.9,51.0,50.6,49.9,48.5,95,87,77,30.37,30.29,28,8,28,0.09
2013-3-2,56.2,50.4,39.4,49.3,45.1,36.7,92,82,73,30.30,30.08,24,7,24,0.15
2013-3-3,49.9,42.7,37.1,38.3,35.6,30.0,92,77,49,30.33,30.23,12,2,12,0.00
2013-3-4,55.7,44.2,33.0,35.2,29.5,25.2,89,60,32,30.33,29.94,13,2,13,0.00
2013-3-5,51.4,45.3,40.7,40.7,35.6,26.6,88,69,47,29.95,29.75,9,1,9,0.00
2013-3-6,44.8,43.1,41.8,42.0,39.9,38.4,93,88,79,29.92,29.60,19,2,19,0.55
2013-3-7,51.9,45.7,41.1,42.4,40.9,38.8,94,84,63,30.11,29.92,13,3,13,0.17
2013-3-8,53.5,43.7,37.1,42.3,38.2,35.8,95,82,58,30.27,30.11,12,2,12,0.00
2013-3-9,55.5,43.7,36.1,42.3,36.1,-99.9,98,80,54,30.52,30.27,9,-9,9,0.00
2013-3-10,48.9,44.1,40.3,42.4,39.9,36.8,91,85,74,30.52,30.44,7,1,7,0.01
2013-3-11,51.9,47.2,43.0,46.7,42.9,40.6,93,85,68,30.47,30.18,15,2,15,0.02
2013-3-12,55.2,52.1,49.3,50.6,48.4,46.2,95,87,74,30.18,30.08,30,10,30,0.03
2013-3-13,52.8,51.7,50.9,50.4,48.7,47.5,93,89,86,30.22,30.11,28,8,28,0.08
2013-3-14,53.3,51.1,48.5,48.9,46.9,44.4,94,86,74,30.17,30.05,16,4,16,0.01
2013-3-15,58.6,52.5,49.4,50.0,48.0,45.4,94,85,72,30.23,30.15,22,6,22,0.00
2013-3-16,50.4,47.4,40.2,45.6,41.9,35.2,88,81,66,30.16,29.90,19,8,28,0.03
2013-3-17,49.4,42.6,39.4,38.3,35.8,33.8,89,77,58,30.21,30.00,21,5,21,0.04
2013-3-18,54.1,45.0,40.9,41.5,36.6,32.1,90,73,47,30.27,30.13,31,6,31,0.00
2013-3-19,56.9,44.4,37.7,42.2,36.4,29.9,93,75,37,30.25,29.61,21,2,21,0.30
2013-3-20,52.4,47.1,40.4,48.9,41.5,33.1,95,81,66,30.04,29.40,34,9,34,0.43
2013-3-21,49.1,41.2,36.9,37.5,35.0,33.1,92,79,57,30.24,30.04,17,4,17,0.04
2013-3-22,49.6,40.5,35.8,36.1,32.3,26.6,92,74,43,30.40,30.24,11,2,11,0.02
2013-3-23,51.4,40.7,35.7,33.9,26.3,-99.9,87,64,35,30.42,30.32,10,-33,10,0.00
2013-3-24,55.7,43.9,34.0,36.5,32.4,28.3,88,66,39,30.33,30.14,5,1,8,0.00
2013-3-25,62.2,50.3,37.1,38.2,31.6,27.7,74,51,30,30.16,29.94,10,1,10,0.00
2013-3-26,61.2,51.8,46.5,41.4,38.5,35.2,75,61,39,30.03,29.97,10,1,10,0.00
2013-3-27,58.2,49.9,46.2,47.6,40.5,-99.9,92,73,55,30.02,29.96,7,-13,7,0.03
2013-3-28,62.4,52.7,45.0,50.5,46.2,43.1,94,80,56,30.17,30.01,10,2,10,0.02
2013-3-29,65.4,54.3,45.9,48.2,45.4,43.1,93,74,48,30.27,30.17,7,2,10,0.00
2013-3-30,66.0,53.9,42.6,48.8,44.8,40.6,96,73,52,30.28,30.10,14,2,14,0.00
2013-3-31,69.3,56.9,45.0,47.8,44.1,41.1,88,64,45,30.10,29.92,10,2,10,0.00